sensor_id;sensor_type;location;lat;lon;timestamp;P1;durP1;ratioP1;P2;durP2;ratioP2
37823;SDS011;23667;43.246;26.576;2022-08-23T00:02:12;17.02;;;11.27;;
37823;SDS011;23667;43.246;26.576;2022-08-23T00:04:39;17.42;;;10.52;;
37823;SDS011;23667;43.246;26.576;2022-08-23T00:07:06;15.15;;;9.77;;
37823;SDS011;23667;43.246;26.576;2022-08-23T00:09:39;16.67;;;10.60;;
37823;SDS011;23667;43.246;26.576;2022-08-23T00:12:12;15.88;;;10.02;;
37823;SDS011;23667;43.246;26.576;2022-08-23T00:14:46;12.18;;;9.70;;
37823;SDS011;23667;43.246;26.576;2022-08-23T00:17:14;16.17;;;9.32;;
37823;SDS011;23667;43.246;26.576;2022-08-23T00:19:40;15.57;;;8.80;;
37823;SDS011;23667;43.246;26.576;2022-08-23T00:22:06;14.27;;;9.27;;
37823;SDS011;23667;43.246;26.576;2022-08-23T00:24:32;15.50;;;9.52;;
37823;SDS011;23667;43.246;26.576;2022-08-23T00:27:04;14.50;;;9.32;;
37823;SDS011;23667;43.246;26.576;2022-08-23T00:29:39;18.42;;;9.07;;
37823;SDS011;23667;43.246;26.576;2022-08-23T00:32:09;15.50;;;10.25;;
37823;SDS011;23667;43.246;26.576;2022-08-23T00:34:36;17.20;;;10.05;;
37823;SDS011;23667;43.246;26.576;2022-08-23T00:37:03;15.75;;;9.40;;
37823;SDS011;23667;43.246;26.576;2022-08-23T00:39:29;17.75;;;10.82;;
37823;SDS011;23667;43.246;26.576;2022-08-23T00:41:59;14.75;;;10.25;;
37823;SDS011;23667;43.246;26.576;2022-08-23T00:44:52;20.60;;;10.05;;
37823;SDS011;23667;43.246;26.576;2022-08-23T00:47:43;17.92;;;9.98;;
37823;SDS011;23667;43.246;26.576;2022-08-23T00:53:02;20.23;;;9.75;;
37823;SDS011;23667;43.246;26.576;2022-08-23T00:55:32;14.02;;;9.88;;
37823;SDS011;23667;43.246;26.576;2022-08-23T00:57:59;18.75;;;9.88;;
37823;SDS011;23667;43.246;26.576;2022-08-23T01:00:26;17.08;;;10.40;;
37823;SDS011;23667;43.246;26.576;2022-08-23T01:02:53;15.75;;;9.48;;
37823;SDS011;23667;43.246;26.576;2022-08-23T01:05:20;14.00;;;9.85;;
37823;SDS011;23667;43.246;26.576;2022-08-23T01:07:53;14.75;;;10.48;;
37823;SDS011;23667;43.246;26.576;2022-08-23T01:10:23;18.60;;;10.70;;
37823;SDS011;23667;43.246;26.576;2022-08-23T01:13:07;15.85;;;9.85;;
37823;SDS011;23667;43.246;26.576;2022-08-23T01:15:39;13.45;;;9.88;;
37823;SDS011;23667;43.246;26.576;2022-08-23T01:18:12;15.05;;;10.10;;
37823;SDS011;23667;43.246;26.576;2022-08-23T01:25:58;15.60;;;9.93;;
37823;SDS011;23667;43.246;26.576;2022-08-23T01:28:23;24.30;;;10.40;;
37823;SDS011;23667;43.246;26.576;2022-08-23T01:30:52;16.17;;;10.27;;
37823;SDS011;23667;43.246;26.576;2022-08-23T01:33:17;19.63;;;9.52;;
37823;SDS011;23667;43.246;26.576;2022-08-23T01:35:45;14.82;;;9.80;;
37823;SDS011;23667;43.246;26.576;2022-08-23T01:38:13;15.93;;;10.05;;
37823;SDS011;23667;43.246;26.576;2022-08-23T01:40:39;15.25;;;9.48;;
37823;SDS011;23667;43.246;26.576;2022-08-23T01:43:06;16.25;;;9.60;;
37823;SDS011;23667;43.246;26.576;2022-08-23T01:45:33;16.20;;;9.85;;
37823;SDS011;23667;43.246;26.576;2022-08-23T01:47:59;19.67;;;9.73;;
37823;SDS011;23667;43.246;26.576;2022-08-23T01:50:25;19.42;;;10.98;;
37823;SDS011;23667;43.246;26.576;2022-08-23T01:52:52;16.20;;;10.88;;
37823;SDS011;23667;43.246;26.576;2022-08-23T01:55:18;16.92;;;10.85;;
37823;SDS011;23667;43.246;26.576;2022-08-23T01:57:45;13.05;;;10.30;;
37823;SDS011;23667;43.246;26.576;2022-08-23T02:00:13;19.45;;;10.15;;
37823;SDS011;23667;43.246;26.576;2022-08-23T02:02:39;15.98;;;10.13;;
37823;SDS011;23667;43.246;26.576;2022-08-23T02:05:06;26.50;;;10.45;;
37823;SDS011;23667;43.246;26.576;2022-08-23T02:07:32;30.25;;;11.57;;
37823;SDS011;23667;43.246;26.576;2022-08-23T02:09:58;19.33;;;10.60;;
37823;SDS011;23667;43.246;26.576;2022-08-23T02:12:23;22.17;;;11.35;;
37823;SDS011;23667;43.246;26.576;2022-08-23T02:14:52;22.08;;;11.10;;
37823;SDS011;23667;43.246;26.576;2022-08-23T02:17:17;14.82;;;10.73;;
37823;SDS011;23667;43.246;26.576;2022-08-23T02:19:43;18.95;;;10.85;;
37823;SDS011;23667;43.246;26.576;2022-08-23T02:22:09;17.33;;;10.98;;
37823;SDS011;23667;43.246;26.576;2022-08-23T02:24:40;16.77;;;9.85;;
37823;SDS011;23667;43.246;26.576;2022-08-23T02:27:07;16.48;;;10.20;;
37823;SDS011;23667;43.246;26.576;2022-08-23T02:29:34;20.15;;;11.52;;
37823;SDS011;23667;43.246;26.576;2022-08-23T02:31:59;24.67;;;9.38;;
37823;SDS011;23667;43.246;26.576;2022-08-23T02:34:26;18.20;;;11.05;;
37823;SDS011;23667;43.246;26.576;2022-08-23T02:36:53;18.52;;;10.50;;
37823;SDS011;23667;43.246;26.576;2022-08-23T02:39:19;18.90;;;10.77;;
37823;SDS011;23667;43.246;26.576;2022-08-23T02:41:45;21.08;;;11.57;;
37823;SDS011;23667;43.246;26.576;2022-08-23T02:44:10;20.40;;;12.70;;
37823;SDS011;23667;43.246;26.576;2022-08-23T02:46:37;17.17;;;10.40;;
37823;SDS011;23667;43.246;26.576;2022-08-23T02:49:03;17.73;;;11.30;;
37823;SDS011;23667;43.246;26.576;2022-08-23T02:51:29;16.33;;;10.95;;
37823;SDS011;23667;43.246;26.576;2022-08-23T02:53:55;27.40;;;13.52;;
37823;SDS011;23667;43.246;26.576;2022-08-23T02:56:21;16.65;;;11.30;;
37823;SDS011;23667;43.246;26.576;2022-08-23T02:58:47;20.13;;;12.30;;
37823;SDS011;23667;43.246;26.576;2022-08-23T03:01:35;25.67;;;13.48;;
37823;SDS011;23667;43.246;26.576;2022-08-23T03:04:01;21.40;;;12.32;;
37823;SDS011;23667;43.246;26.576;2022-08-23T03:06:27;24.80;;;13.35;;
37823;SDS011;23667;43.246;26.576;2022-08-23T03:08:54;19.20;;;10.98;;
37823;SDS011;23667;43.246;26.576;2022-08-23T03:11:21;21.70;;;11.68;;
37823;SDS011;23667;43.246;26.576;2022-08-23T03:13:48;20.02;;;12.10;;
37823;SDS011;23667;43.246;26.576;2022-08-23T03:16:15;18.02;;;11.60;;
37823;SDS011;23667;43.246;26.576;2022-08-23T03:18:41;19.42;;;11.40;;
37823;SDS011;23667;43.246;26.576;2022-08-23T03:21:07;14.90;;;12.13;;
37823;SDS011;23667;43.246;26.576;2022-08-23T03:23:33;23.52;;;11.85;;
37823;SDS011;23667;43.246;26.576;2022-08-23T03:26:01;20.02;;;11.68;;
37823;SDS011;23667;43.246;26.576;2022-08-23T03:28:28;21.83;;;11.32;;
37823;SDS011;23667;43.246;26.576;2022-08-23T03:30:54;21.45;;;11.65;;
37823;SDS011;23667;43.246;26.576;2022-08-23T03:33:20;22.83;;;11.57;;
37823;SDS011;23667;43.246;26.576;2022-08-23T03:35:46;21.70;;;12.07;;
37823;SDS011;23667;43.246;26.576;2022-08-23T03:38:13;23.27;;;13.32;;
37823;SDS011;23667;43.246;26.576;2022-08-23T03:40:40;19.20;;;12.05;;
37823;SDS011;23667;43.246;26.576;2022-08-23T03:43:07;27.80;;;12.35;;
37823;SDS011;23667;43.246;26.576;2022-08-23T03:45:32;28.50;;;12.18;;
37823;SDS011;23667;43.246;26.576;2022-08-23T03:47:58;26.73;;;13.10;;
37823;SDS011;23667;43.246;26.576;2022-08-23T03:50:23;29.60;;;13.65;;
37823;SDS011;23667;43.246;26.576;2022-08-23T03:52:52;21.88;;;12.35;;
37823;SDS011;23667;43.246;26.576;2022-08-23T03:55:17;26.38;;;12.75;;
37823;SDS011;23667;43.246;26.576;2022-08-23T03:57:44;23.05;;;11.25;;
37823;SDS011;23667;43.246;26.576;2022-08-23T04:00:10;20.77;;;10.95;;
37823;SDS011;23667;43.246;26.576;2022-08-23T04:02:38;27.98;;;12.63;;
37823;SDS011;23667;43.246;26.576;2022-08-23T04:05:04;18.90;;;10.85;;
37823;SDS011;23667;43.246;26.576;2022-08-23T04:07:30;27.05;;;11.07;;
37823;SDS011;23667;43.246;26.576;2022-08-23T04:09:56;19.52;;;10.98;;
37823;SDS011;23667;43.246;26.576;2022-08-23T04:12:21;18.80;;;10.40;;
37823;SDS011;23667;43.246;26.576;2022-08-23T04:14:47;23.02;;;10.43;;
37823;SDS011;23667;43.246;26.576;2022-08-23T04:17:19;20.23;;;9.48;;
37823;SDS011;23667;43.246;26.576;2022-08-23T04:19:46;22.33;;;10.40;;
37823;SDS011;23667;43.246;26.576;2022-08-23T04:22:14;34.42;;;11.52;;
37823;SDS011;23667;43.246;26.576;2022-08-23T04:24:41;17.48;;;10.80;;
37823;SDS011;23667;43.246;26.576;2022-08-23T04:27:07;14.50;;;9.55;;
37823;SDS011;23667;43.246;26.576;2022-08-23T04:29:34;16.88;;;9.77;;
37823;SDS011;23667;43.246;26.576;2022-08-23T04:32:00;19.13;;;8.90;;
37823;SDS011;23667;43.246;26.576;2022-08-23T04:34:27;16.92;;;8.98;;
37823;SDS011;23667;43.246;26.576;2022-08-23T04:36:52;19.80;;;8.63;;
37823;SDS011;23667;43.246;26.576;2022-08-23T04:39:18;18.58;;;8.40;;
37823;SDS011;23667;43.246;26.576;2022-08-23T04:41:43;22.48;;;9.68;;
37823;SDS011;23667;43.246;26.576;2022-08-23T04:44:27;16.98;;;8.77;;
37823;SDS011;23667;43.246;26.576;2022-08-23T04:46:53;23.17;;;9.35;;
37823;SDS011;23667;43.246;26.576;2022-08-23T04:49:18;15.73;;;9.48;;
37823;SDS011;23667;43.246;26.576;2022-08-23T04:51:45;20.70;;;9.20;;
37823;SDS011;23667;43.246;26.576;2022-08-23T04:54:11;14.93;;;8.60;;
37823;SDS011;23667;43.246;26.576;2022-08-23T04:56:37;13.95;;;9.30;;
37823;SDS011;23667;43.246;26.576;2022-08-23T04:59:03;23.63;;;10.02;;
37823;SDS011;23667;43.246;26.576;2022-08-23T05:01:29;19.20;;;9.50;;
37823;SDS011;23667;43.246;26.576;2022-08-23T05:03:54;23.60;;;8.32;;
37823;SDS011;23667;43.246;26.576;2022-08-23T05:06:21;13.52;;;8.60;;
37823;SDS011;23667;43.246;26.576;2022-08-23T05:08:47;17.02;;;8.95;;
37823;SDS011;23667;43.246;26.576;2022-08-23T05:11:13;15.35;;;9.30;;
37823;SDS011;23667;43.246;26.576;2022-08-23T05:13:40;21.95;;;9.85;;
37823;SDS011;23667;43.246;26.576;2022-08-23T05:16:05;22.38;;;11.45;;
37823;SDS011;23667;43.246;26.576;2022-08-23T05:18:31;14.73;;;11.25;;
37823;SDS011;23667;43.246;26.576;2022-08-23T05:20:57;19.90;;;11.85;;
37823;SDS011;23667;43.246;26.576;2022-08-23T05:23:23;25.67;;;10.57;;
37823;SDS011;23667;43.246;26.576;2022-08-23T05:25:52;17.40;;;10.38;;
37823;SDS011;23667;43.246;26.576;2022-08-23T05:28:20;21.90;;;10.18;;
37823;SDS011;23667;43.246;26.576;2022-08-23T05:30:55;20.73;;;9.30;;
37823;SDS011;23667;43.246;26.576;2022-08-23T05:33:23;18.40;;;8.82;;
37823;SDS011;23667;43.246;26.576;2022-08-23T05:35:49;15.43;;;8.27;;
37823;SDS011;23667;43.246;26.576;2022-08-23T05:38:15;25.42;;;8.73;;
37823;SDS011;23667;43.246;26.576;2022-08-23T05:40:41;21.60;;;8.95;;
37823;SDS011;23667;43.246;26.576;2022-08-23T05:43:06;16.98;;;8.23;;
37823;SDS011;23667;43.246;26.576;2022-08-23T05:45:32;13.38;;;9.32;;
37823;SDS011;23667;43.246;26.576;2022-08-23T05:47:57;15.85;;;8.57;;
37823;SDS011;23667;43.246;26.576;2022-08-23T05:50:23;17.60;;;8.27;;
37823;SDS011;23667;43.246;26.576;2022-08-23T05:52:48;17.80;;;7.75;;
37823;SDS011;23667;43.246;26.576;2022-08-23T05:55:14;21.15;;;7.95;;
37823;SDS011;23667;43.246;26.576;2022-08-23T05:57:40;12.90;;;7.93;;
37823;SDS011;23667;43.246;26.576;2022-08-23T06:00:06;15.43;;;8.55;;
37823;SDS011;23667;43.246;26.576;2022-08-23T06:02:40;12.93;;;7.07;;
37823;SDS011;23667;43.246;26.576;2022-08-23T06:05:07;18.55;;;7.00;;
37823;SDS011;23667;43.246;26.576;2022-08-23T06:07:33;15.82;;;8.18;;
37823;SDS011;23667;43.246;26.576;2022-08-23T06:09:59;20.33;;;7.78;;
37823;SDS011;23667;43.246;26.576;2022-08-23T06:12:25;13.73;;;7.18;;
37823;SDS011;23667;43.246;26.576;2022-08-23T06:14:51;16.70;;;7.43;;
37823;SDS011;23667;43.246;26.576;2022-08-23T06:17:16;14.40;;;9.02;;
37823;SDS011;23667;43.246;26.576;2022-08-23T06:19:42;16.25;;;8.27;;
37823;SDS011;23667;43.246;26.576;2022-08-23T06:22:07;16.50;;;8.02;;
37823;SDS011;23667;43.246;26.576;2022-08-23T06:24:33;13.75;;;7.25;;
37823;SDS011;23667;43.246;26.576;2022-08-23T06:27:00;16.88;;;6.60;;
37823;SDS011;23667;43.246;26.576;2022-08-23T06:29:25;18.33;;;9.57;;
37823;SDS011;23667;43.246;26.576;2022-08-23T06:31:52;14.77;;;6.43;;
37823;SDS011;23667;43.246;26.576;2022-08-23T06:36:52;15.30;;;6.75;;
37823;SDS011;23667;43.246;26.576;2022-08-23T06:39:22;12.95;;;6.88;;
37823;SDS011;23667;43.246;26.576;2022-08-23T06:41:50;10.40;;;6.80;;
37823;SDS011;23667;43.246;26.576;2022-08-23T06:44:17;10.35;;;6.25;;
37823;SDS011;23667;43.246;26.576;2022-08-23T06:46:43;14.10;;;5.40;;
37823;SDS011;23667;43.246;26.576;2022-08-23T06:49:10;12.57;;;6.22;;
37823;SDS011;23667;43.246;26.576;2022-08-23T06:51:40;11.13;;;5.28;;
37823;SDS011;23667;43.246;26.576;2022-08-23T06:54:08;8.82;;;5.53;;
37823;SDS011;23667;43.246;26.576;2022-08-23T06:56:36;7.28;;;4.65;;
37823;SDS011;23667;43.246;26.576;2022-08-23T06:59:03;9.23;;;4.88;;
37823;SDS011;23667;43.246;26.576;2022-08-23T07:04:05;8.40;;;5.22;;
37823;SDS011;23667;43.246;26.576;2022-08-23T07:06:32;8.95;;;4.97;;
37823;SDS011;23667;43.246;26.576;2022-08-23T07:08:58;14.80;;;5.22;;
37823;SDS011;23667;43.246;26.576;2022-08-23T07:11:24;7.53;;;5.70;;
37823;SDS011;23667;43.246;26.576;2022-08-23T07:13:53;10.27;;;5.78;;
37823;SDS011;23667;43.246;26.576;2022-08-23T07:16:20;7.07;;;4.63;;
37823;SDS011;23667;43.246;26.576;2022-08-23T07:18:45;8.18;;;4.68;;
37823;SDS011;23667;43.246;26.576;2022-08-23T07:21:13;11.90;;;4.30;;
37823;SDS011;23667;43.246;26.576;2022-08-23T07:23:38;11.57;;;3.92;;
37823;SDS011;23667;43.246;26.576;2022-08-23T07:26:12;7.55;;;4.15;;
37823;SDS011;23667;43.246;26.576;2022-08-23T07:28:40;7.78;;;4.40;;
37823;SDS011;23667;43.246;26.576;2022-08-23T07:31:10;9.45;;;4.35;;
37823;SDS011;23667;43.246;26.576;2022-08-23T07:33:48;4.70;;;4.20;;
37823;SDS011;23667;43.246;26.576;2022-08-23T07:36:15;13.73;;;5.00;;
37823;SDS011;23667;43.246;26.576;2022-08-23T07:38:43;32.58;;;6.25;;
37823;SDS011;23667;43.246;26.576;2022-08-23T07:41:09;9.32;;;4.85;;
37823;SDS011;23667;43.246;26.576;2022-08-23T07:43:38;8.52;;;3.90;;
37823;SDS011;23667;43.246;26.576;2022-08-23T07:46:05;9.07;;;5.32;;
37823;SDS011;23667;43.246;26.576;2022-08-23T07:48:32;7.50;;;4.43;;
37823;SDS011;23667;43.246;26.576;2022-08-23T07:51:02;12.05;;;5.18;;
37823;SDS011;23667;43.246;26.576;2022-08-23T07:53:31;9.05;;;4.80;;
37823;SDS011;23667;43.246;26.576;2022-08-23T07:56:03;9.75;;;4.50;;
37823;SDS011;23667;43.246;26.576;2022-08-23T07:58:30;8.57;;;4.38;;
37823;SDS011;23667;43.246;26.576;2022-08-23T08:00:56;6.50;;;3.92;;
37823;SDS011;23667;43.246;26.576;2022-08-23T08:03:31;9.07;;;3.75;;
37823;SDS011;23667;43.246;26.576;2022-08-23T08:06:03;4.57;;;3.70;;
37823;SDS011;23667;43.246;26.576;2022-08-23T08:08:31;10.80;;;3.92;;
37823;SDS011;23667;43.246;26.576;2022-08-23T08:10:56;5.85;;;3.38;;
37823;SDS011;23667;43.246;26.576;2022-08-23T08:13:22;6.03;;;3.67;;
37823;SDS011;23667;43.246;26.576;2022-08-23T08:15:47;10.52;;;4.10;;
37823;SDS011;23667;43.246;26.576;2022-08-23T08:18:13;7.13;;;4.22;;
37823;SDS011;23667;43.246;26.576;2022-08-23T08:20:44;8.30;;;4.20;;
37823;SDS011;23667;43.246;26.576;2022-08-23T08:23:10;10.20;;;4.07;;
37823;SDS011;23667;43.246;26.576;2022-08-23T08:25:35;7.70;;;3.63;;
37823;SDS011;23667;43.246;26.576;2022-08-23T08:28:01;6.95;;;3.13;;
37823;SDS011;23667;43.246;26.576;2022-08-23T08:30:27;9.23;;;3.17;;
37823;SDS011;23667;43.246;26.576;2022-08-23T08:32:53;8.00;;;3.60;;
37823;SDS011;23667;43.246;26.576;2022-08-23T08:35:28;6.68;;;2.92;;
37823;SDS011;23667;43.246;26.576;2022-08-23T08:37:53;8.43;;;2.97;;
37823;SDS011;23667;43.246;26.576;2022-08-23T08:40:19;4.72;;;3.00;;
37823;SDS011;23667;43.246;26.576;2022-08-23T08:43:00;6.25;;;3.83;;
37823;SDS011;23667;43.246;26.576;2022-08-23T08:45:51;11.35;;;3.40;;
37823;SDS011;23667;43.246;26.576;2022-08-23T08:48:21;5.40;;;2.85;;
37823;SDS011;23667;43.246;26.576;2022-08-23T08:50:56;8.82;;;3.72;;
37823;SDS011;23667;43.246;26.576;2022-08-23T08:53:29;13.55;;;3.30;;
37823;SDS011;23667;43.246;26.576;2022-08-23T08:55:59;7.65;;;3.53;;
37823;SDS011;23667;43.246;26.576;2022-08-23T08:59:04;9.50;;;3.00;;
37823;SDS011;23667;43.246;26.576;2022-08-23T09:01:28;8.38;;;3.50;;
37823;SDS011;23667;43.246;26.576;2022-08-23T09:03:55;7.55;;;3.35;;
37823;SDS011;23667;43.246;26.576;2022-08-23T09:09:31;13.10;;;3.30;;
37823;SDS011;23667;43.246;26.576;2022-08-23T09:17:25;8.88;;;2.80;;
37823;SDS011;23667;43.246;26.576;2022-08-23T09:19:54;12.73;;;2.80;;
37823;SDS011;23667;43.246;26.576;2022-08-23T09:22:58;10.82;;;3.20;;
37823;SDS011;23667;43.246;26.576;2022-08-23T09:25:18;8.95;;;2.67;;
37823;SDS011;23667;43.246;26.576;2022-08-23T09:27:44;7.13;;;2.35;;
37823;SDS011;23667;43.246;26.576;2022-08-23T09:30:14;12.25;;;2.85;;
37823;SDS011;23667;43.246;26.576;2022-08-23T09:32:42;9.18;;;2.70;;
37823;SDS011;23667;43.246;26.576;2022-08-23T09:35:11;11.13;;;3.03;;
37823;SDS011;23667;43.246;26.576;2022-08-23T09:37:48;8.95;;;2.30;;
37823;SDS011;23667;43.246;26.576;2022-08-23T09:40:29;6.40;;;2.70;;
37823;SDS011;23667;43.246;26.576;2022-08-23T09:43:05;9.65;;;2.60;;
37823;SDS011;23667;43.246;26.576;2022-08-23T09:45:41;8.27;;;2.80;;
37823;SDS011;23667;43.246;26.576;2022-08-23T09:51:16;10.32;;;2.75;;
37823;SDS011;23667;43.246;26.576;2022-08-23T09:54:05;10.45;;;2.85;;
37823;SDS011;23667;43.246;26.576;2022-08-23T09:56:42;11.35;;;2.28;;
37823;SDS011;23667;43.246;26.576;2022-08-23T09:59:29;8.05;;;2.08;;
37823;SDS011;23667;43.246;26.576;2022-08-23T10:02:02;9.07;;;2.60;;
37823;SDS011;23667;43.246;26.576;2022-08-23T10:09:49;7.40;;;2.25;;
37823;SDS011;23667;43.246;26.576;2022-08-23T10:12:15;12.30;;;2.53;;
37823;SDS011;23667;43.246;26.576;2022-08-23T10:14:41;10.23;;;2.15;;
37823;SDS011;23667;43.246;26.576;2022-08-23T10:17:17;10.93;;;2.45;;
37823;SDS011;23667;43.246;26.576;2022-08-23T10:22:50;9.18;;;2.40;;
37823;SDS011;23667;43.246;26.576;2022-08-23T10:28:28;8.00;;;2.45;;
37823;SDS011;23667;43.246;26.576;2022-08-23T10:31:42;11.43;;;2.42;;
37823;SDS011;23667;43.246;26.576;2022-08-23T10:34:26;4.75;;;1.95;;
37823;SDS011;23667;43.246;26.576;2022-08-23T10:39:49;8.70;;;2.30;;
37823;SDS011;23667;43.246;26.576;2022-08-23T10:50:38;10.43;;;2.30;;
37823;SDS011;23667;43.246;26.576;2022-08-23T10:53:10;9.95;;;2.30;;
37823;SDS011;23667;43.246;26.576;2022-08-23T10:55:40;5.43;;;2.08;;
37823;SDS011;23667;43.246;26.576;2022-08-23T10:58:33;8.95;;;2.40;;
37823;SDS011;23667;43.246;26.576;2022-08-23T11:01:03;12.65;;;2.38;;
37823;SDS011;23667;43.246;26.576;2022-08-23T11:06:22;14.70;;;2.72;;
37823;SDS011;23667;43.246;26.576;2022-08-23T11:09:02;11.18;;;2.55;;
37823;SDS011;23667;43.246;26.576;2022-08-23T11:11:40;9.50;;;2.55;;
37823;SDS011;23667;43.246;26.576;2022-08-23T11:14:56;9.32;;;2.25;;
37823;SDS011;23667;43.246;26.576;2022-08-23T11:17:11;9.95;;;2.30;;
37823;SDS011;23667;43.246;26.576;2022-08-23T11:30:36;8.00;;;2.80;;
37823;SDS011;23667;43.246;26.576;2022-08-23T11:32:59;8.18;;;2.03;;
37823;SDS011;23667;43.246;26.576;2022-08-23T11:35:43;16.10;;;2.75;;
37823;SDS011;23667;43.246;26.576;2022-08-23T11:38:12;14.63;;;2.45;;
37823;SDS011;23667;43.246;26.576;2022-08-23T11:40:41;6.63;;;2.53;;
37823;SDS011;23667;43.246;26.576;2022-08-23T11:43:38;19.13;;;2.40;;
37823;SDS011;23667;43.246;26.576;2022-08-23T11:51:41;13.07;;;2.78;;
37823;SDS011;23667;43.246;26.576;2022-08-23T11:54:38;16.13;;;3.40;;
37823;SDS011;23667;43.246;26.576;2022-08-23T12:16:02;13.93;;;2.22;;
37823;SDS011;23667;43.246;26.576;2022-08-23T12:18:28;14.70;;;2.28;;
37823;SDS011;23667;43.246;26.576;2022-08-23T12:20:59;12.05;;;2.15;;
37823;SDS011;23667;43.246;26.576;2022-08-23T12:23:26;11.38;;;2.60;;
37823;SDS011;23667;43.246;26.576;2022-08-23T12:25:59;12.63;;;2.10;;
37823;SDS011;23667;43.246;26.576;2022-08-23T12:28:37;20.55;;;3.67;;
37823;SDS011;23667;43.246;26.576;2022-08-23T12:36:32;11.27;;;3.15;;
37823;SDS011;23667;43.246;26.576;2022-08-23T12:39:37;10.27;;;2.53;;
37823;SDS011;23667;43.246;26.576;2022-08-23T12:45:02;12.20;;;2.83;;
37823;SDS011;23667;43.246;26.576;2022-08-23T12:47:38;8.70;;;2.15;;
37823;SDS011;23667;43.246;26.576;2022-08-23T12:50:17;24.38;;;3.53;;
37823;SDS011;23667;43.246;26.576;2022-08-23T12:52:58;14.95;;;3.67;;
37823;SDS011;23667;43.246;26.576;2022-08-23T12:55:31;11.32;;;2.38;;
37823;SDS011;23667;43.246;26.576;2022-08-23T13:03:05;9.98;;;2.67;;
37823;SDS011;23667;43.246;26.576;2022-08-23T13:05:59;16.25;;;2.45;;
37823;SDS011;23667;43.246;26.576;2022-08-23T13:10:56;17.90;;;2.97;;
37823;SDS011;23667;43.246;26.576;2022-08-23T13:13:24;11.55;;;2.65;;
37823;SDS011;23667;43.246;26.576;2022-08-23T13:15:56;16.55;;;2.63;;
37823;SDS011;23667;43.246;26.576;2022-08-23T13:23:43;11.32;;;2.30;;
37823;SDS011;23667;43.246;26.576;2022-08-23T13:29:05;12.27;;;3.08;;
37823;SDS011;23667;43.246;26.576;2022-08-23T13:31:51;9.55;;;3.05;;
37823;SDS011;23667;43.246;26.576;2022-08-23T13:34:36;14.90;;;3.00;;
37823;SDS011;23667;43.246;26.576;2022-08-23T13:37:16;13.15;;;3.00;;
37823;SDS011;23667;43.246;26.576;2022-08-23T13:39:46;11.00;;;3.13;;
37823;SDS011;23667;43.246;26.576;2022-08-23T13:44:49;17.65;;;2.97;;
37823;SDS011;23667;43.246;26.576;2022-08-23T13:47:22;10.55;;;3.22;;
37823;SDS011;23667;43.246;26.576;2022-08-23T13:49:50;15.60;;;3.15;;
37823;SDS011;23667;43.246;26.576;2022-08-23T13:52:16;18.50;;;3.10;;
37823;SDS011;23667;43.246;26.576;2022-08-23T13:54:42;14.00;;;3.25;;
37823;SDS011;23667;43.246;26.576;2022-08-23T13:57:11;17.00;;;6.93;;
37823;SDS011;23667;43.246;26.576;2022-08-23T13:59:40;35.38;;;15.27;;
37823;SDS011;23667;43.246;26.576;2022-08-23T14:02:14;156.45;;;67.72;;
37823;SDS011;23667;43.246;26.576;2022-08-23T14:04:41;88.75;;;37.88;;
37823;SDS011;23667;43.246;26.576;2022-08-23T14:07:07;110.95;;;48.78;;
37823;SDS011;23667;43.246;26.576;2022-08-23T14:09:34;80.20;;;31.70;;
37823;SDS011;23667;43.246;26.576;2022-08-23T14:12:01;118.45;;;53.22;;
37823;SDS011;23667;43.246;26.576;2022-08-23T14:14:30;156.52;;;65.75;;
37823;SDS011;23667;43.246;26.576;2022-08-23T14:16:57;244.98;;;120.35;;
37823;SDS011;23667;43.246;26.576;2022-08-23T14:19:23;537.03;;;323.77;;
37823;SDS011;23667;43.246;26.576;2022-08-23T14:21:49;288.40;;;148.02;;
37823;SDS011;23667;43.246;26.576;2022-08-23T14:24:16;79.53;;;42.28;;
37823;SDS011;23667;43.246;26.576;2022-08-23T14:26:41;13.07;;;3.60;;
37823;SDS011;23667;43.246;26.576;2022-08-23T14:29:07;11.10;;;3.15;;
37823;SDS011;23667;43.246;26.576;2022-08-23T14:31:33;16.98;;;4.60;;
37823;SDS011;23667;43.246;26.576;2022-08-23T14:33:58;19.98;;;3.58;;
37823;SDS011;23667;43.246;26.576;2022-08-23T14:36:24;23.17;;;5.10;;
37823;SDS011;23667;43.246;26.576;2022-08-23T14:38:49;15.52;;;3.58;;
37823;SDS011;23667;43.246;26.576;2022-08-23T14:41:17;15.88;;;3.70;;
37823;SDS011;23667;43.246;26.576;2022-08-23T14:43:45;15.50;;;4.45;;
37823;SDS011;23667;43.246;26.576;2022-08-23T14:46:12;13.00;;;3.15;;
37823;SDS011;23667;43.246;26.576;2022-08-23T14:48:37;23.33;;;3.83;;
37823;SDS011;23667;43.246;26.576;2022-08-23T14:51:03;21.73;;;4.10;;
37823;SDS011;23667;43.246;26.576;2022-08-23T14:53:30;18.85;;;3.30;;
37823;SDS011;23667;43.246;26.576;2022-08-23T14:55:58;17.83;;;4.03;;
37823;SDS011;23667;43.246;26.576;2022-08-23T14:58:24;16.77;;;3.50;;
37823;SDS011;23667;43.246;26.576;2022-08-23T15:00:50;38.75;;;9.90;;
37823;SDS011;23667;43.246;26.576;2022-08-23T15:03:21;38.53;;;10.13;;
37823;SDS011;23667;43.246;26.576;2022-08-23T15:05:49;27.30;;;6.28;;
37823;SDS011;23667;43.246;26.576;2022-08-23T15:08:15;22.60;;;6.15;;
37823;SDS011;23667;43.246;26.576;2022-08-23T15:10:41;21.60;;;4.43;;
37823;SDS011;23667;43.246;26.576;2022-08-23T15:13:07;28.98;;;6.10;;
37823;SDS011;23667;43.246;26.576;2022-08-23T15:15:33;31.08;;;9.35;;
37823;SDS011;23667;43.246;26.576;2022-08-23T15:18:00;18.90;;;5.18;;
37823;SDS011;23667;43.246;26.576;2022-08-23T15:20:32;24.65;;;5.53;;
37823;SDS011;23667;43.246;26.576;2022-08-23T15:23:00;15.98;;;3.45;;
37823;SDS011;23667;43.246;26.576;2022-08-23T15:25:27;16.63;;;3.65;;
37823;SDS011;23667;43.246;26.576;2022-08-23T15:27:57;15.05;;;3.38;;
37823;SDS011;23667;43.246;26.576;2022-08-23T15:30:26;11.32;;;3.40;;
37823;SDS011;23667;43.246;26.576;2022-08-23T15:32:52;22.05;;;3.28;;
37823;SDS011;23667;43.246;26.576;2022-08-23T15:35:18;14.65;;;2.95;;
37823;SDS011;23667;43.246;26.576;2022-08-23T15:37:45;14.73;;;3.10;;
37823;SDS011;23667;43.246;26.576;2022-08-23T15:40:10;16.90;;;3.75;;
37823;SDS011;23667;43.246;26.576;2022-08-23T15:42:36;18.63;;;3.20;;
37823;SDS011;23667;43.246;26.576;2022-08-23T15:45:02;17.27;;;3.28;;
37823;SDS011;23667;43.246;26.576;2022-08-23T15:47:30;14.70;;;3.72;;
37823;SDS011;23667;43.246;26.576;2022-08-23T15:50:01;10.35;;;3.25;;
37823;SDS011;23667;43.246;26.576;2022-08-23T15:52:28;13.60;;;4.05;;
37823;SDS011;23667;43.246;26.576;2022-08-23T15:54:54;12.98;;;3.65;;
37823;SDS011;23667;43.246;26.576;2022-08-23T15:57:21;21.70;;;4.03;;
37823;SDS011;23667;43.246;26.576;2022-08-23T15:59:50;18.75;;;3.88;;
37823;SDS011;23667;43.246;26.576;2022-08-23T16:02:15;22.35;;;4.28;;
37823;SDS011;23667;43.246;26.576;2022-08-23T16:04:41;10.88;;;3.95;;
37823;SDS011;23667;43.246;26.576;2022-08-23T16:07:07;16.08;;;4.50;;
37823;SDS011;23667;43.246;26.576;2022-08-23T16:09:34;10.82;;;4.47;;
37823;SDS011;23667;43.246;26.576;2022-08-23T16:12:01;14.25;;;4.57;;
37823;SDS011;23667;43.246;26.576;2022-08-23T16:14:28;19.20;;;4.25;;
37823;SDS011;23667;43.246;26.576;2022-08-23T16:16:56;10.68;;;4.15;;
37823;SDS011;23667;43.246;26.576;2022-08-23T16:19:22;17.42;;;5.10;;
37823;SDS011;23667;43.246;26.576;2022-08-23T16:21:49;11.43;;;4.60;;
37823;SDS011;23667;43.246;26.576;2022-08-23T16:24:17;9.82;;;4.40;;
37823;SDS011;23667;43.246;26.576;2022-08-23T16:26:43;9.65;;;4.82;;